Time;durP1;ratioP1;P1;durP2;ratioP2;P2;SDS_P1;SDS_P2;PMS_P1;PMS_P2;Temp;Humidity;BMP_temperature;BMP_pressure;BME280_temperature;BME280_humidity;BME280_pressure;Samples;Min_cycle;Max_cycle;Signal;HPM_P1;HPM_P2
2021/01/16 00:00:29;;;;;;;19.35;13.35;;;2.60;95.90;;;;;;5009733;28;20045;-53
2021/01/16 00:02:55;;;;;;;22.38;13.27;;;2.60;95.90;;;;;;5009582;28;20022;-47
2021/01/16 00:05:26;;;;;;;18.08;12.52;;;2.50;96.10;;;;;;5009241;28;20041;-49
2021/01/16 00:08:04;;;;;;;20.08;12.63;;;2.60;95.90;;;;;;5009625;28;20029;-54
2021/01/16 00:10:31;;;;;;;19.65;12.85;;;2.50;95.90;;;;;;5008270;28;20022;-51
2021/01/16 00:12:56;;;;;;;17.45;12.32;;;2.50;95.90;;;;;;5009162;28;20104;-51
2021/01/16 00:15:22;;;;;;;19.92;13.15;;;2.40;95.90;;;;;;5009538;28;20117;-53
2021/01/16 00:18:02;;;;;;;20.48;13.10;;;2.40;95.80;;;;;;5009679;28;20038;-50
2021/01/16 00:20:29;;;;;;;19.75;13.45;;;2.40;95.80;;;;;;5009669;28;20026;-48
2021/01/16 00:22:54;;;;;;;19.80;12.23;;;2.40;95.80;;;;;;5009055;28;20032;-49
2021/01/16 00:25:20;;;;;;;16.63;12.27;;;2.40;96.00;;;;;;5009131;28;20029;-47
2021/01/16 00:27:46;;;;;;;16.48;11.95;;;2.40;96.00;;;;;;5009026;28;20465;-49
2021/01/16 00:30:12;;;;;;;19.55;12.15;;;2.40;95.90;;;;;;5009026;28;20334;-47
2021/01/16 00:32:38;;;;;;;18.33;12.43;;;2.40;95.90;;;;;;5008746;28;20084;-51
2021/01/16 00:35:32;;;;;;;20.23;12.35;;;2.40;95.80;;;;;;5009138;28;20030;-48
2021/01/16 00:37:57;;;;;;;17.63;11.95;;;2.40;95.90;;;;;;5008073;28;20073;-50
2021/01/16 00:40:26;;;;;;;18.30;12.93;;;2.40;95.70;;;;;;5010309;28;20034;-47
2021/01/16 00:42:54;;;;;;;19.33;12.95;;;2.40;95.60;;;;;;5008609;28;20037;-50
2021/01/16 00:45:20;;;;;;;20.48;12.85;;;2.30;95.60;;;;;;5008855;28;20026;-45
2021/01/16 00:47:46;;;;;;;16.92;12.48;;;2.30;95.60;;;;;;5009285;28;20030;-46
2021/01/16 00:50:14;;;;;;;19.05;12.65;;;2.30;95.70;;;;;;5008885;28;20436;-47
2021/01/16 00:52:40;;;;;;;18.95;13.23;;;2.40;95.50;;;;;;5008769;28;20045;-46
2021/01/16 00:55:08;;;;;;;19.85;12.30;;;2.30;95.30;;;;;;5008679;28;20448;-46
2021/01/16 00:57:34;;;;;;;16.95;11.40;;;2.30;95.40;;;;;;5008534;28;20564;-48
2021/01/16 01:00:00;;;;;;;17.88;11.98;;;2.30;95.40;;;;;;5008440;28;20064;-49
2021/01/16 01:02:25;;;;;;;18.50;13.38;;;2.30;95.20;;;;;;5008884;28;20560;-48
2021/01/16 01:04:52;;;;;;;19.52;13.05;;;2.30;95.40;;;;;;5007377;28;20048;-49
2021/01/16 01:07:17;;;;;;;20.13;14.07;;;2.30;95.50;;;;;;5008615;28;20026;-51
2021/01/16 01:09:45;;;;;;;17.45;12.70;;;2.30;95.50;;;;;;5008940;28;20113;-45
2021/01/16 01:12:11;;;;;;;17.52;12.80;;;2.40;95.40;;;;;;5009573;28;20396;-49
2021/01/16 01:14:38;;;;;;;20.08;12.82;;;2.40;94.90;;;;;;5009218;28;20026;-53
2021/01/16 01:17:16;;;;;;;16.75;12.60;;;2.40;94.60;;;;;;5011340;28;20499;-52
2021/01/16 01:19:42;;;;;;;18.60;12.60;;;2.30;95.00;;;;;;5010830;28;20152;-51
2021/01/16 01:22:08;;;;;;;19.15;12.25;;;2.40;95.00;;;;;;5011544;28;20397;-51
2021/01/16 01:24:34;;;;;;;19.35;13.07;;;2.40;95.00;;;;;;5010742;28;20033;-53
2021/01/16 01:27:00;;;;;;;19.17;12.77;;;2.30;94.60;;;;;;5011199;28;20401;-51
2021/01/16 01:29:25;;;;;;;18.40;13.18;;;2.30;94.80;;;;;;5011074;28;20065;-52
2021/01/16 01:31:51;;;;;;;17.30;12.20;;;2.30;94.70;;;;;;5011161;28;20480;-54
2021/01/16 01:34:16;;;;;;;18.95;11.75;;;2.40;94.60;;;;;;5010973;28;20034;-53
2021/01/16 01:36:41;;;;;;;18.42;13.15;;;2.40;94.30;;;;;;5011115;28;20048;-53
2021/01/16 01:39:07;;;;;;;20.52;12.82;;;2.40;94.30;;;;;;5010363;28;20029;-53
2021/01/16 01:41:40;;;;;;;20.00;12.85;;;2.40;94.50;;;;;;5010968;28;20389;-50
2021/01/16 01:44:06;;;;;;;19.17;13.07;;;2.40;94.60;;;;;;5010764;28;20400;-51
2021/01/16 01:46:36;;;;;;;14.35;11.55;;;2.40;94.60;;;;;;5010959;28;20028;-54
2021/01/16 01:49:03;;;;;;;18.88;13.40;;;2.30;94.70;;;;;;5011103;28;20481;-51
2021/01/16 01:51:31;;;;;;;15.35;10.40;;;2.30;95.10;;;;;;5011039;28;20393;-49
2021/01/16 01:53:59;;;;;;;17.88;12.07;;;2.30;95.20;;;;;;5010558;28;20030;-52
2021/01/16 01:56:25;;;;;;;16.80;11.60;;;2.30;95.10;;;;;;5011142;28;20474;-51
2021/01/16 01:58:52;;;;;;;17.98;12.60;;;2.30;95.00;;;;;;5011130;28;20057;-51
2021/01/16 02:01:21;;;;;;;16.55;11.63;;;2.20;94.90;;;;;;5010850;28;20025;-51
2021/01/16 02:03:49;;;;;;;17.15;11.45;;;2.20;94.70;;;;;;5010790;28;20022;-51
2021/01/16 02:06:16;;;;;;;18.38;11.80;;;2.20;94.70;;;;;;5010701;28;20054;-52
2021/01/16 02:08:41;;;;;;;16.17;12.10;;;2.20;94.80;;;;;;5010842;28;20033;-50
2021/01/16 02:11:07;;;;;;;13.57;10.20;;;2.20;94.90;;;;;;5011063;28;20021;-50
2021/01/16 02:13:33;;;;;;;15.65;11.50;;;2.20;94.70;;;;;;5010588;28;20054;-51
2021/01/16 02:16:09;;;;;;;15.98;11.65;;;2.10;94.90;;;;;;5010658;28;20496;-52
2021/01/16 02:18:37;;;;;;;20.77;11.82;;;2.10;95.00;;;;;;5010434;28;20022;-53
2021/01/16 02:21:05;;;;;;;18.77;11.90;;;2.10;95.00;;;;;;5010494;28;20108;-51
2021/01/16 02:23:33;;;;;;;17.48;11.55;;;2.10;94.80;;;;;;5010301;28;20030;-50
2021/01/16 02:26:07;;;;;;;17.80;11.68;;;2.10;94.80;;;;;;5010673;28;20018;-50
2021/01/16 02:28:35;;;;;;;18.67;11.90;;;2.10;94.60;;;;;;5010511;28;20045;-51
2021/01/16 02:31:02;;;;;;;16.55;11.45;;;2.20;94.70;;;;;;5010687;28;20511;-52
2021/01/16 02:33:30;;;;;;;18.20;11.98;;;2.10;94.70;;;;;;5010272;28;20117;-49
2021/01/16 02:36:16;;;;;;;16.33;10.82;;;2.10;94.80;;;;;;5010608;28;20030;-51
2021/01/16 02:39:18;;;;;;;14.90;10.30;;;2.00;94.70;;;;;;5010365;28;20030;-53
2021/01/16 02:41:58;;;;;;;15.45;10.35;;;2.00;94.90;;;;;;5010357;28;20021;-54
2021/01/16 02:44:50;;;;;;;17.27;10.55;;;2.00;94.80;;;;;;5010083;28;20026;-54
2021/01/16 02:47:22;;;;;;;15.85;10.27;;;2.00;94.80;;;;;;5010337;28;20076;-52
2021/01/16 02:50:15;;;;;;;15.93;11.02;;;2.10;94.60;;;;;;5010649;28;20057;-53
2021/01/16 02:52:45;;;;;;;15.93;10.25;;;2.10;94.50;;;;;;5012656;28;20042;-53
2021/01/16 02:55:11;;;;;;;14.13;10.20;;;2.20;94.20;;;;;;5013794;28;20030;-52
2021/01/16 02:57:37;;;;;;;16.92;10.40;;;2.10;94.20;;;;;;5013688;28;20030;-49
2021/01/16 03:00:07;;;;;;;13.70;9.75;;;2.10;94.20;;;;;;5013577;28;20080;-49
2021/01/16 03:02:33;;;;;;;15.18;10.73;;;2.10;94.10;;;;;;5013417;28;20022;-52
2021/01/16 03:04:59;;;;;;;14.95;10.27;;;2.10;94.20;;;;;;5012489;28;20128;-49
2021/01/16 03:07:26;;;;;;;14.30;10.20;;;2.20;93.90;;;;;;5014017;28;20056;-50
2021/01/16 03:09:53;;;;;;;13.07;8.60;;;2.20;93.60;;;;;;5013472;28;20109;-52
2021/01/16 03:12:19;;;;;;;13.27;9.68;;;2.20;93.20;;;;;;5013569;28;20306;-52
2021/01/16 03:14:54;;;;;;;14.23;9.60;;;2.10;93.30;;;;;;5013255;28;20064;-50
2021/01/16 03:17:25;;;;;;;13.20;9.55;;;2.10;93.00;;;;;;5013579;28;20030;-49
2021/01/16 03:19:51;;;;;;;14.35;9.40;;;2.00;93.30;;;;;;5012799;28;20037;-53
2021/01/16 03:22:20;;;;;;;15.88;10.02;;;2.00;93.30;;;;;;5013298;28;20489;-51
2021/01/16 03:24:48;;;;;;;13.50;8.32;;;1.90;93.30;;;;;;5013024;28;20038;-51
2021/01/16 03:27:14;;;;;;;14.57;8.75;;;1.90;93.20;;;;;;5013315;28;20054;-53
2021/01/16 03:29:40;;;;;;;15.20;9.48;;;1.80;93.40;;;;;;5013113;28;20077;-51
2021/01/16 03:32:07;;;;;;;11.80;8.60;;;1.80;93.50;;;;;;5013240;28;20478;-51
2021/01/16 03:34:33;;;;;;;12.07;8.23;;;1.80;93.50;;;;;;5013131;28;20022;-50
2021/01/16 03:36:59;;;;;;;13.68;8.77;;;1.90;93.30;;;;;;5013289;28;20310;-54
2021/01/16 03:39:24;;;;;;;13.27;8.88;;;1.90;93.40;;;;;;5013103;28;20022;-52
2021/01/16 03:41:50;;;;;;;11.23;7.88;;;2.00;93.10;;;;;;5013080;28;20026;-52
2021/01/16 03:44:15;;;;;;;14.05;7.47;;;1.90;92.50;;;;;;5012571;28;20050;-49
2021/01/16 03:46:41;;;;;;;10.93;8.00;;;2.00;92.70;;;;;;5012884;28;20022;-49
2021/01/16 03:49:07;;;;;;;12.40;8.88;;;2.00;92.40;;;;;;5012365;28;20125;-52
2021/01/16 03:51:32;;;;;;;12.68;8.88;;;2.00;92.60;;;;;;5012796;28;20045;-54
2021/01/16 03:53:58;;;;;;;12.00;8.25;;;2.00;92.30;;;;;;5012615;28;20057;-53
2021/01/16 03:56:23;;;;;;;15.48;8.90;;;2.00;92.40;;;;;;5012855;28;20038;-52
2021/01/16 03:58:49;;;;;;;12.75;8.73;;;1.90;92.20;;;;;;5013026;28;20033;-52
2021/01/16 04:01:14;;;;;;;12.82;8.48;;;2.00;92.10;;;;;;5012334;28;20562;-52
2021/01/16 04:03:40;;;;;;;10.57;7.88;;;2.10;92.10;;;;;;5011893;28;20116;-55
2021/01/16 04:06:05;;;;;;;12.27;8.45;;;2.10;91.60;;;;;;5012516;28;20076;-53
2021/01/16 04:08:31;;;;;;;13.57;8.18;;;1.90;91.90;;;;;;5012491;28;20076;-49
2021/01/16 04:10:56;;;;;;;11.50;8.73;;;1.60;92.00;;;;;;5012552;28;20105;-53
2021/01/16 04:13:22;;;;;;;11.18;8.63;;;1.50;92.30;;;;;;5012077;28;20092;-54
2021/01/16 04:15:47;;;;;;;12.65;8.70;;;1.50;92.50;;;;;;5012311;28;20022;-51
2021/01/16 04:18:13;;;;;;;12.40;8.70;;;1.50;92.40;;;;;;5012210;28;20034;-53
2021/01/16 04:20:38;;;;;;;13.57;9.52;;;1.60;92.50;;;;;;5012460;28;20021;-53
2021/01/16 04:23:04;;;;;;;12.05;9.07;;;1.60;92.30;;;;;;5011931;28;20068;-54
2021/01/16 04:25:29;;;;;;;11.15;8.05;;;1.60;92.60;;;;;;5011941;28;20030;-51
2021/01/16 04:27:55;;;;;;;10.02;7.88;;;1.60;92.30;;;;;;5012243;28;20105;-52
2021/01/16 04:30:21;;;;;;;11.75;8.80;;;1.60;92.30;;;;;;5011944;28;20036;-53
2021/01/16 04:32:50;;;;;;;13.13;8.57;;;1.60;92.30;;;;;;5011784;28;20030;-50
2021/01/16 04:35:15;;;;;;;15.40;8.68;;;1.70;92.40;;;;;;5012054;28;20029;-51
2021/01/16 04:37:44;;;;;;;12.20;8.65;;;1.70;92.20;;;;;;5011883;28;20095;-49
2021/01/16 04:40:09;;;;;;;11.25;7.70;;;1.70;91.90;;;;;;5011915;28;20405;-53
2021/01/16 04:42:41;;;;;;;10.10;7.65;;;1.70;92.00;;;;;;5011609;28;20022;-49
2021/01/16 04:45:08;;;;;;;12.85;8.80;;;1.70;91.90;;;;;;5011796;28;20037;-50
2021/01/16 04:47:35;;;;;;;10.57;8.00;;;1.60;91.70;;;;;;5012126;28;20392;-52
2021/01/16 04:50:01;;;;;;;10.93;7.72;;;1.60;91.60;;;;;;5011552;28;20053;-53
2021/01/16 04:52:29;;;;;;;12.45;8.32;;;1.60;91.70;;;;;;5011953;28;20022;-51
2021/01/16 04:54:55;;;;;;;10.18;7.70;;;1.50;91.70;;;;;;5011539;28;20080;-52
2021/01/16 04:57:29;;;;;;;9.63;7.53;;;1.50;91.90;;;;;;5011707;28;20116;-51
2021/01/16 04:59:56;;;;;;;9.52;7.03;;;1.50;91.90;;;;;;5011792;28;20029;-49
2021/01/16 05:02:22;;;;;;;11.75;7.65;;;1.60;91.80;;;;;;5011797;28;20026;-50
2021/01/16 05:04:50;;;;;;;13.23;8.18;;;1.60;91.70;;;;;;5011444;28;20030;-50
2021/01/16 05:07:18;;;;;;;10.68;8.43;;;1.50;91.60;;;;;;5011759;28;20097;-53
2021/01/16 05:09:45;;;;;;;10.65;7.80;;;1.40;91.70;;;;;;5011481;28;20028;-49
2021/01/16 05:12:33;;;;;;;11.38;8.68;;;1.40;91.90;;;;;;5011613;28;20025;-50
2021/01/16 05:15:05;;;;;;;9.88;7.57;;;1.40;92.00;;;;;;5010852;28;20025;-50
2021/01/16 05:17:35;;;;;;;9.50;7.18;;;1.50;91.90;;;;;;5011578;28;20068;-51
2021/01/16 05:20:03;;;;;;;12.82;8.02;;;1.50;91.70;;;;;;5010809;28;20030;-50
2021/01/16 05:22:28;;;;;;;11.23;7.38;;;1.60;91.60;;;;;;5011085;28;20058;-50
2021/01/16 05:25:04;;;;;;;11.63;8.60;;;1.60;91.60;;;;;;5010993;28;20069;-54
2021/01/16 05:27:33;;;;;;;13.13;8.93;;;1.60;91.60;;;;;;5011128;28;20036;-51
2021/01/16 05:30:04;;;;;;;14.05;9.27;;;1.60;91.60;;;;;;5011149;28;20022;-49
2021/01/16 05:32:30;;;;;;;16.27;10.65;;;1.60;91.90;;;;;;5011018;28;20500;-49
2021/01/16 05:35:13;;;;;;;12.60;9.70;;;1.60;92.10;;;;;;5010871;28;20025;-52
2021/01/16 05:37:38;;;;;;;11.20;8.50;;;1.70;92.10;;;;;;5010909;28;20025;-53
2021/01/16 05:40:05;;;;;;;14.23;9.57;;;1.70;92.00;;;;;;5010809;28;20033;-55
2021/01/16 05:42:31;;;;;;;13.52;8.63;;;1.80;92.30;;;;;;5009603;28;20030;-51
2021/01/16 05:44:56;;;;;;;17.27;11.13;;;1.70;92.20;;;;;;5010522;28;20030;-51
2021/01/16 05:47:22;;;;;;;13.73;8.75;;;1.80;92.00;;;;;;5009535;28;20072;-53
2021/01/16 05:49:48;;;;;;;12.85;8.43;;;1.80;92.10;;;;;;5010277;28;20045;-50
2021/01/16 05:52:17;;;;;;;17.30;9.55;;;1.80;92.10;;;;;;5010732;28;20042;-53
2021/01/16 05:54:44;;;;;;;21.27;9.77;;;1.90;92.20;;;;;;5010472;28;20515;-53
2021/01/16 05:57:16;;;;;;;19.08;10.25;;;2.00;91.40;;;;;;5010777;28;20058;-50
2021/01/16 05:59:45;;;;;;;13.50;9.25;;;2.10;91.30;;;;;;5010819;28;20481;-50
2021/01/16 06:02:13;;;;;;;16.10;10.93;;;2.30;91.20;;;;;;5010650;28;20428;-54
2021/01/16 06:04:45;;;;;;;14.30;9.52;;;2.20;91.10;;;;;;5010532;28;20512;-53
2021/01/16 06:07:12;;;;;;;14.23;9.63;;;2.00;91.40;;;;;;5010875;28;20060;-50
2021/01/16 06:09:38;;;;;;;14.07;8.77;;;2.00;91.60;;;;;;5010603;28;20028;-49
2021/01/16 06:12:05;;;;;;;11.23;8.73;;;1.90;91.90;;;;;;5010653;28;20026;-53
2021/01/16 06:14:43;;;;;;;15.38;9.75;;;1.80;92.00;;;;;;5010494;28;20392;-54
2021/01/16 06:17:11;;;;;;;12.30;8.63;;;1.80;92.50;;;;;;5009610;28;20118;-52
2021/01/16 06:19:42;;;;;;;14.48;9.40;;;1.70;92.50;;;;;;5009210;28;20041;-54
2021/01/16 06:22:11;;;;;;;14.00;9.85;;;1.70;92.40;;;;;;5010464;28;20026;-51
2021/01/16 06:24:38;;;;;;;13.90;8.85;;;1.70;92.50;;;;;;5009069;28;20301;-54
2021/01/16 06:27:05;;;;;;;11.63;8.75;;;1.80;92.20;;;;;;5013143;28;20029;-54
2021/01/16 06:29:35;;;;;;;12.30;8.70;;;1.80;91.90;;;;;;5012981;28;20050;-53
2021/01/16 06:32:09;;;;;;;14.00;9.40;;;1.80;91.60;;;;;;5014260;28;20053;-50
2021/01/16 06:34:37;;;;;;;15.30;9.77;;;1.80;91.40;;;;;;5014129;28;20040;-53
2021/01/16 06:37:04;;;;;;;10.40;7.82;;;1.90;91.60;;;;;;5014306;28;20022;-50
2021/01/16 06:39:34;;;;;;;13.27;9.18;;;1.90;91.30;;;;;;5014176;28;20031;-52
2021/01/16 06:42:06;;;;;;;15.65;9.20;;;1.80;91.30;;;;;;5015260;28;20461;-51
2021/01/16 06:44:31;;;;;;;12.82;8.13;;;1.80;91.40;;;;;;5013707;28;20062;-49
2021/01/16 06:46:59;;;;;;;12.98;8.80;;;1.70;91.30;;;;;;5013948;28;20096;-51
2021/01/16 06:49:30;;;;;;;12.93;9.02;;;1.70;91.30;;;;;;5013454;28;20026;-48
2021/01/16 06:51:57;;;;;;;13.15;8.73;;;1.90;91.50;;;;;;5013767;28;20029;-48
2021/01/16 06:54:24;;;;;;;14.15;9.55;;;1.90;91.60;;;;;;5013797;28;20026;-47
2021/01/16 06:57:09;;;;;;;15.43;9.10;;;1.80;91.50;;;;;;5013910;28;20041;-49
2021/01/16 06:59:37;;;;;;;19.65;9.02;;;1.90;91.60;;;;;;5013723;28;20030;-48
2021/01/16 07:02:24;;;;;;;19.52;10.50;;;1.90;91.60;;;;;;5013677;28;20525;-48
2021/01/16 07:04:54;;;;;;;17.77;9.20;;;1.90;91.60;;;;;;5013277;28;20396;-48
2021/01/16 07:07:27;;;;;;;20.70;9.45;;;1.80;91.80;;;;;;5013776;28;20069;-48
2021/01/16 07:10:09;;;;;;;13.73;8.98;;;1.70;92.20;;;;;;5013667;28;20277;-46
2021/01/16 07:12:35;;;;;;;13.50;9.10;;;1.70;92.20;;;;;;5013285;28;20102;-53
2021/01/16 07:15:04;;;;;;;14.85;9.88;;;1.70;92.00;;;;;;5013603;28;20030;-50
2021/01/16 07:17:31;;;;;;;13.07;8.82;;;1.60;92.00;;;;;;5013421;28;20034;-50
2021/01/16 07:19:58;;;;;;;14.70;8.65;;;1.60;92.20;;;;;;5013127;28;20026;-48
2021/01/16 07:22:28;;;;;;;13.50;8.95;;;1.70;91.90;;;;;;5013351;28;20389;-48
2021/01/16 07:24:55;;;;;;;12.07;8.27;;;1.60;92.00;;;;;;5013004;28;20485;-48
2021/01/16 07:27:22;;;;;;;12.07;8.35;;;1.70;92.20;;;;;;5011788;28;20117;-49
2021/01/16 07:29:47;;;;;;;14.10;8.23;;;1.60;92.10;;;;;;5013125;28;20030;-50
2021/01/16 07:32:15;;;;;;;11.02;8.45;;;1.70;92.50;;;;;;5013212;28;20025;-47
2021/01/16 07:34:43;;;;;;;11.35;8.65;;;1.70;92.10;;;;;;5012967;28;20033;-49
2021/01/16 07:37:10;;;;;;;12.40;8.80;;;1.70;92.00;;;;;;5012221;28;20029;-48
2021/01/16 07:39:39;;;;;;;12.57;8.95;;;1.70;91.90;;;;;;5012924;28;20022;-50
2021/01/16 07:42:14;;;;;;;13.60;9.52;;;1.70;91.10;;;;;;5013024;28;20026;-47
2021/01/16 07:44:43;;;;;;;12.75;8.43;;;1.60;91.70;;;;;;5012843;28;20033;-51
2021/01/16 07:47:21;;;;;;;14.13;8.60;;;1.60;91.80;;;;;;5012976;28;20033;-50
2021/01/16 07:49:56;;;;;;;17.13;9.07;;;1.60;91.80;;;;;;5012679;28;20033;-49
2021/01/16 07:52:26;;;;;;;13.00;8.73;;;1.50;91.40;;;;;;5012795;28;20026;-47
2021/01/16 07:55:05;;;;;;;14.38;9.43;;;1.40;92.00;;;;;;5012491;28;20455;-49
2021/01/16 07:57:33;;;;;;;13.45;9.15;;;1.40;91.90;;;;;;5012626;28;20108;-51
2021/01/16 08:00:05;;;;;;;12.77;8.85;;;1.30;92.00;;;;;;5012745;28;20030;-52
2021/01/16 08:02:34;;;;;;;11.82;8.75;;;1.40;91.80;;;;;;5029649;28;20036;-51
2021/01/16 08:05:06;;;;;;;14.02;8.90;;;1.30;91.90;;;;;;5027367;28;20034;-50
2021/01/16 08:08:03;;;;;;;13.02;9.20;;;1.20;91.90;;;;;;5012389;28;20026;-50
2021/01/16 08:10:29;;;;;;;10.35;7.35;;;1.10;92.10;;;;;;4993956;28;20044;-48
2021/01/16 08:12:59;;;;;;;11.35;7.68;;;1.10;92.10;;;;;;5006944;28;20433;-49
2021/01/16 08:15:32;;;;;;;11.45;8.23;;;1.10;92.10;;;;;;5012422;28;20029;-51
2021/01/16 08:18:02;;;;;;;12.88;8.88;;;1.20;92.30;;;;;;5010635;28;20048;-49
2021/01/16 08:20:34;;;;;;;11.35;7.88;;;1.20;91.80;;;;;;5012385;28;20120;-52
2021/01/16 08:23:03;;;;;;;13.32;8.18;;;1.10;91.60;;;;;;4996585;28;20034;-46
2021/01/16 08:25:30;;;;;;;12.68;7.57;;;1.20;91.90;;;;;;4992422;28;20084;-55
2021/01/16 08:28:00;;;;;;;17.00;7.80;;;1.20;92.10;;;;;;5005076;28;20030;-54
2021/01/16 08:30:33;;;;;;;13.48;7.72;;;1.20;91.80;;;;;;5002809;28;20363;-53
2021/01/16 08:33:12;;;;;;;14.27;8.32;;;1.20;91.70;;;;;;4992230;28;20034;-53
2021/01/16 08:35:37;;;;;;;12.80;8.50;;;1.20;92.10;;;;;;5000075;28;20334;-49
2021/01/16 08:38:18;;;;;;;13.32;9.05;;;1.10;92.50;;;;;;5011976;28;20022;-52
2021/01/16 08:41:02;;;;;;;12.88;7.70;;;1.10;92.10;;;;;;5003989;28;20034;-53
2021/01/16 08:43:44;;;;;;;15.23;8.93;;;1.10;92.30;;;;;;4992316;28;20080;-48
2021/01/16 08:46:15;;;;;;;14.77;7.85;;;1.10;92.50;;;;;;5006585;28;20052;-48
2021/01/16 08:48:57;;;;;;;18.42;8.90;;;1.10;92.50;;;;;;5011626;28;20886;-46
2021/01/16 08:51:35;;;;;;;13.82;9.27;;;1.20;92.60;;;;;;5009806;28;20061;-47
2021/01/16 08:54:18;;;;;;;13.38;9.00;;;1.20;92.60;;;;;;4996705;28;20029;-50
2021/01/16 08:56:52;;;;;;;14.43;9.27;;;1.20;92.50;;;;;;5012164;28;20053;-49
2021/01/16 08:59:26;;;;;;;13.55;8.73;;;1.10;92.30;;;;;;5010418;28;20030;-50
2021/01/16 09:02:03;;;;;;;13.15;8.75;;;1.10;91.50;;;;;;5011297;28;20104;-49
2021/01/16 09:04:33;;;;;;;16.20;8.23;;;1.10;91.50;;;;;;5011031;28;20029;-48
2021/01/16 09:07:12;;;;;;;11.43;8.50;;;1.10;91.50;;;;;;5011322;28;20100;-49
2021/01/16 09:09:38;;;;;;;13.93;9.48;;;1.10;91.20;;;;;;5011110;28;20545;-52
2021/01/16 09:12:13;;;;;;;12.82;9.55;;;1.20;91.80;;;;;;5011178;28;20022;-54
2021/01/16 09:14:40;;;;;;;14.82;8.70;;;1.30;91.30;;;;;;5011234;28;20420;-47
2021/01/16 09:17:23;;;;;;;14.23;8.98;;;1.20;91.10;;;;;;5011143;28;20049;-49
2021/01/16 09:19:56;;;;;;;12.95;8.32;;;1.30;90.70;;;;;;5010813;28;20052;-46
2021/01/16 09:22:27;;;;;;;13.48;9.02;;;1.30;91.00;;;;;;5011123;28;20459;-46
2021/01/16 09:25:13;;;;;;;12.20;8.07;;;1.30;91.00;;;;;;5010861;28;20022;-48
2021/01/16 09:27:44;;;;;;;;;;;1.30;90.80;;;;;;5009469;28;20041;-47
2021/01/16 09:30:22;;;;;;;12.77;8.77;;;1.30;91.10;;;;;;5010723;28;20007;-47
2021/01/16 09:32:48;;;;;;;15.98;9.48;;;1.40;91.10;;;;;;5009299;28;20033;-48
2021/01/16 09:35:33;;;;;;;15.23;9.63;;;1.40;91.20;;;;;;4996789;28;20030;-49
2021/01/16 09:37:59;;;;;;;12.98;8.88;;;1.50;91.30;;;;;;5011652;28;20108;-45
2021/01/16 09:40:35;;;;;;;14.10;8.73;;;1.50;90.70;;;;;;5030375;28;20559;-47
2021/01/16 09:43:24;;;;;;;16.38;8.75;;;1.50;90.70;;;;;;5006112;28;20048;-47
2021/01/16 09:45:55;;;;;;;15.23;9.73;;;1.50;90.70;;;;;;5011041;28;20057;-48
2021/01/16 09:48:37;;;;;;;14.80;9.60;;;1.50;90.60;;;;;;5010824;28;20113;-50
2021/01/16 09:51:04;;;;;;;14.02;9.25;;;1.50;90.30;;;;;;4992315;28;20413;-47
2021/01/16 09:53:30;;;;;;;12.55;8.45;;;1.50;90.00;;;;;;4990896;28;20034;-47
2021/01/16 09:55:56;;;;;;;13.30;8.82;;;1.50;88.70;;;;;;5009436;28;20525;-47
2021/01/16 09:58:36;;;;;;;16.00;9.70;;;1.40;89.20;;;;;;5010712;28;20088;-49
2021/01/16 10:01:24;;;;;;;14.45;9.98;;;1.40;88.50;;;;;;4990733;28;20559;-49
2021/01/16 10:03:51;;;;;;;19.73;9.40;;;1.40;88.90;;;;;;4996360;28;20046;-50
2021/01/16 10:06:18;;;;;;;17.60;9.75;;;1.50;87.90;;;;;;5010629;28;20057;-45
2021/01/16 10:08:45;;;;;;;15.40;9.35;;;1.60;88.00;;;;;;5001723;28;20422;-49
2021/01/16 10:11:12;;;;;;;14.07;9.30;;;1.50;87.20;;;;;;4991075;28;20022;-44
2021/01/16 10:13:40;;;;;;;14.93;10.43;;;1.40;87.50;;;;;;4997688;28;20018;-47
2021/01/16 10:16:11;;;;;;;15.65;10.23;;;1.30;87.90;;;;;;5005761;28;20045;-48
2021/01/16 10:18:38;;;;;;;17.52;9.95;;;1.40;88.30;;;;;;5025021;28;20097;-45
2021/01/16 10:21:19;;;;;;;17.60;9.20;;;1.40;88.30;;;;;;5028874;28;20026;-47
2021/01/16 10:23:45;;;;;;;12.40;8.23;;;1.50;88.30;;;;;;5008108;28;20161;-49
2021/01/16 10:26:12;;;;;;;13.65;8.68;;;1.40;88.70;;;;;;5004400;28;20532;-42
2021/01/16 10:28:45;;;;;;;14.52;8.30;;;1.40;89.50;;;;;;5020680;28;20794;-48
2021/01/16 10:31:11;;;;;;;13.43;9.18;;;1.30;90.40;;;;;;4991982;28;20061;-47
2021/01/16 10:33:42;;;;;;;16.75;8.48;;;1.50;90.20;;;;;;4990855;28;20077;-46
2021/01/16 10:36:11;;;;;;;14.25;9.20;;;1.50;90.50;;;;;;4990842;28;20026;-47
2021/01/16 10:38:44;;;;;;;14.43;8.10;;;1.50;90.00;;;;;;4990785;28;20029;-48
2021/01/16 10:41:11;;;;;;;14.02;8.50;;;1.60;89.60;;;;;;5010039;28;20026;-48
2021/01/16 10:43:37;;;;;;;11.60;8.50;;;1.60;90.70;;;;;;5010136;28;20432;-49
2021/01/16 10:46:10;;;;;;;10.98;7.85;;;1.50;90.40;;;;;;4992357;28;20034;-48
2021/01/16 10:48:39;;;;;;;11.43;7.57;;;1.50;90.70;;;;;;4991006;28;20026;-47
2021/01/16 10:51:09;;;;;;;14.40;8.60;;;1.60;90.80;;;;;;5008244;28;20045;-51
2021/01/16 10:53:40;;;;;;;12.95;8.45;;;1.60;90.60;;;;;;5010108;28;20022;-47
2021/01/16 10:56:14;;;;;;;16.58;8.95;;;1.70;90.40;;;;;;4992701;28;20613;-49
2021/01/16 10:58:40;;;;;;;14.13;9.98;;;1.70;90.40;;;;;;4990492;28;20030;-50
2021/01/16 11:01:09;;;;;;;16.08;9.23;;;1.80;90.30;;;;;;5006845;28;20100;-48
2021/01/16 11:03:34;;;;;;;14.10;9.10;;;1.70;90.60;;;;;;5009863;28;20477;-46
2021/01/16 11:06:08;;;;;;;15.82;10.40;;;1.70;90.40;;;;;;4994180;28;20041;-48
2021/01/16 11:08:39;;;;;;;14.57;9.30;;;1.60;90.90;;;;;;4989066;28;20022;-47
2021/01/16 11:11:23;;;;;;;16.75;9.93;;;1.50;91.30;;;;;;5003482;28;20022;-47
2021/01/16 11:13:50;;;;;;;15.93;10.52;;;1.50;91.40;;;;;;4993538;28;20118;-49
2021/01/16 11:16:16;;;;;;;14.35;10.02;;;1.50;91.60;;;;;;4993749;28;20437;-47
2021/01/16 11:18:43;;;;;;;14.65;9.20;;;1.50;91.30;;;;;;4998146;28;20056;-49
2021/01/16 11:21:11;;;;;;;19.17;9.50;;;1.50;91.40;;;;;;4993689;28;20100;-47
2021/01/16 11:23:45;;;;;;;16.52;10.80;;;1.50;91.80;;;;;;5006072;28;20018;-50
2021/01/16 11:26:13;;;;;;;18.67;10.77;;;1.60;92.60;;;;;;5003520;28;20035;-50
2021/01/16 11:28:56;;;;;;;16.95;10.63;;;1.60;92.90;;;;;;4993689;28;20318;-47
2021/01/16 11:31:31;;;;;;;17.23;10.07;;;1.60;92.70;;;;;;4993611;28;20026;-49
2021/01/16 11:34:08;;;;;;;18.63;12.17;;;1.60;92.70;;;;;;4993186;28;20026;-49
2021/01/16 11:36:53;;;;;;;16.80;10.68;;;1.70;92.70;;;;;;4993261;28;20031;-49
2021/01/16 11:39:49;;;;;;;16.27;10.37;;;1.70;92.30;;;;;;4993508;28;20113;-47
2021/01/16 11:42:16;;;;;;;15.63;11.05;;;1.80;91.90;;;;;;4993665;28;20068;-48
2021/01/16 11:44:55;;;;;;;12.95;9.40;;;1.80;91.10;;;;;;4992020;28;20489;-47
2021/01/16 11:47:23;;;;;;;15.00;9.50;;;1.90;90.80;;;;;;4991766;28;20030;-51
2021/01/16 11:49:49;;;;;;;12.07;8.40;;;2.10;90.10;;;;;;4992797;28;20042;-47
2021/01/16 11:52:14;;;;;;;14.27;9.18;;;2.20;89.40;;;;;;4993017;28;20532;-50
2021/01/16 11:54:41;;;;;;;13.02;8.82;;;2.20;88.80;;;;;;4993093;28;20038;-52
2021/01/16 11:57:11;;;;;;;14.38;9.02;;;2.10;87.70;;;;;;4993525;28;20498;-51
2021/01/16 11:59:40;;;;;;;16.65;9.02;;;2.00;87.20;;;;;;4993346;28;20034;-53
2021/01/16 12:02:12;;;;;;;14.15;9.40;;;2.00;87.80;;;;;;4993409;28;20387;-46
2021/01/16 12:04:41;;;;;;;13.43;9.02;;;2.00;88.00;;;;;;4993024;28;20031;-50
2021/01/16 12:07:08;;;;;;;12.55;7.68;;;1.90;88.20;;;;;;4993098;28;20026;-47
2021/01/16 12:09:36;;;;;;;11.85;8.45;;;1.80;87.30;;;;;;4992893;28;20019;-51
2021/01/16 12:12:02;;;;;;;13.70;9.32;;;1.80;87.90;;;;;;4992714;28;20022;-48
2021/01/16 12:14:36;;;;;;;11.05;8.27;;;2.00;88.50;;;;;;4992000;28;20018;-47
2021/01/16 12:17:09;;;;;;;13.43;9.82;;;2.00;88.80;;;;;;4992753;28;20394;-45
2021/01/16 12:19:36;;;;;;;11.65;8.00;;;2.10;87.90;;;;;;4992868;28;20375;-48
2021/01/16 12:22:04;;;;;;;14.65;9.00;;;2.10;87.50;;;;;;4992590;28;20026;-48
2021/01/16 12:24:31;;;;;;;13.48;7.40;;;2.40;86.10;;;;;;4999340;28;20037;-45
2021/01/16 12:26:59;;;;;;;11.77;7.22;;;2.40;85.00;;;;;;5011226;28;20619;-47
2021/01/16 12:29:42;;;;;;;9.75;7.00;;;2.30;83.30;;;;;;4994439;28;20033;-51
2021/01/16 12:32:12;;;;;;;9.25;6.47;;;2.20;79.20;;;;;;4993360;28;20031;-47
2021/01/16 12:34:46;;;;;;;9.07;6.15;;;1.90;79.40;;;;;;4992081;28;20034;-47
2021/01/16 12:37:12;;;;;;;9.85;7.18;;;1.90;81.10;;;;;;4999547;28;20072;-49
2021/01/16 12:39:39;;;;;;;17.00;7.18;;;1.90;83.30;;;;;;5009697;28;20045;-45
2021/01/16 12:42:05;;;;;;;11.43;7.82;;;1.90;83.40;;;;;;5012641;28;20025;-50
2021/01/16 12:44:30;;;;;;;10.55;7.43;;;1.80;83.60;;;;;;5010657;28;20112;-48
2021/01/16 12:46:56;;;;;;;10.10;6.97;;;1.90;84.10;;;;;;5011749;28;20038;-50
2021/01/16 12:49:22;;;;;;;9.55;6.38;;;2.00;84.30;;;;;;5009942;28;20030;-49
2021/01/16 12:51:48;;;;;;;9.00;6.68;;;2.00;83.70;;;;;;5011658;28;20085;-51
2021/01/16 12:54:15;;;;;;;9.27;6.97;;;2.00;85.00;;;;;;5005530;28;20492;-44
2021/01/16 12:56:41;;;;;;;7.75;5.32;;;2.00;83.50;;;;;;4995710;28;20034;-51
2021/01/16 12:59:12;;;;;;;8.65;5.35;;;2.10;80.50;;;;;;5023645;28;20025;-53